Time;durP1;ratioP1;P1;durP2;ratioP2;P2;SDS_P1;SDS_P2;PMS_P1;PMS_P2;Temp;Humidity;BMP_temperature;BMP_pressure;BME280_temperature;BME280_humidity;BME280_pressure;Samples;Min_cycle;Max_cycle;Signal;HPM_P1;HPM_P2
2022/01/08 00:01:35;;;;;;;23.85;10.43;;;;;;;;;;5035282;28;20373;-71
2022/01/08 00:04:01;;;;;;;16.67;7.28;;;;;;;;;;5030842;28;20025;-71
2022/01/08 00:06:27;;;;;;;26.90;11.45;;;;;;;;;;5038325;28;20075;-71
2022/01/08 00:08:53;;;;;;;33.78;14.70;;;;;;;;;;5034900;28;20432;-71
2022/01/08 00:11:21;;;;;;;29.60;13.63;;;;;;;;;;5034037;28;20025;-71
2022/01/08 00:13:47;;;;;;;26.23;12.68;;;;;;;;;;5034805;28;20016;-71
2022/01/08 00:16:14;;;;;;;27.45;11.90;;;;;;;;;;5032681;28;20101;-71
2022/01/08 00:18:40;;;;;;;35.60;13.85;;;;;;;;;;5034778;28;20033;-71
2022/01/08 00:21:06;;;;;;;34.78;14.77;;;;;;;;;;5036079;28;20091;-71
2022/01/08 00:23:32;;;;;;;37.92;15.48;;;;;;;;;;5034489;28;20055;-71
2022/01/08 00:26:01;;;;;;;26.92;12.07;;;;;;;;;;5034848;28;20187;-71
2022/01/08 00:28:27;;;;;;;22.42;10.75;;;;;;;;;;5034179;28;20039;-71
2022/01/08 00:30:53;;;;;;;16.30;7.95;;;;;;;;;;5031144;28;20060;-71
2022/01/08 00:33:20;;;;;;;17.42;8.07;;;;;;;;;;5037704;28;20021;-70
2022/01/08 00:35:46;;;;;;;36.22;14.38;;;;;;;;;;5034227;28;20025;-70
2022/01/08 00:38:13;;;;;;;29.52;14.93;;;;;;;;;;5033411;28;20091;-71
2022/01/08 00:40:39;;;;;;;35.33;15.63;;;;;;;;;;5034237;28;20074;-70
2022/01/08 00:43:05;;;;;;;31.55;14.45;;;;;;;;;;5029715;28;20099;-70
2022/01/08 00:45:31;;;;;;;26.23;11.38;;;;;;;;;;5036746;28;20044;-70
2022/01/08 00:47:57;;;;;;;25.88;10.60;;;;;;;;;;5034883;28;20473;-71
2022/01/08 00:50:23;;;;;;;30.55;10.43;;;;;;;;;;5034226;28;20079;-70
2022/01/08 00:52:49;;;;;;;21.17;10.02;;;;;;;;;;5033960;28;20100;-70
2022/01/08 00:55:15;;;;;;;23.60;9.88;;;;;;;;;;5032244;28;20022;-70
2022/01/08 00:57:41;;;;;;;22.15;9.80;;;;;;;;;;5033797;28;20393;-70
2022/01/08 01:00:09;;;;;;;19.58;8.10;;;;;;;;;;5035548;28;20205;-70
2022/01/08 01:02:35;;;;;;;24.92;10.40;;;;;;;;;;5034005;28;20021;-70
2022/01/08 01:05:01;;;;;;;26.55;11.10;;;;;;;;;;5033874;28;20366;-69
2022/01/08 01:07:27;;;;;;;25.00;11.07;;;;;;;;;;5033000;28;20040;-69
2022/01/08 01:09:52;;;;;;;34.50;11.73;;;;;;;;;;5031058;28;20025;-70
2022/01/08 01:12:18;;;;;;;16.70;8.85;;;;;;;;;;5036801;28;20104;-70
2022/01/08 01:14:44;;;;;;;25.35;10.32;;;;;;;;;;5033607;28;20030;-70
2022/01/08 01:17:10;;;;;;;22.23;8.30;;;;;;;;;;5035036;28;20040;-70
2022/01/08 01:19:36;;;;;;;17.90;8.05;;;;;;;;;;5033480;28;20025;-70
2022/01/08 01:22:04;;;;;;;20.52;9.15;;;;;;;;;;5027965;28;20112;-70
2022/01/08 01:24:31;;;;;;;15.13;7.35;;;;;;;;;;5036053;28;20026;-70
2022/01/08 01:29:39;;;;;;;16.33;6.78;;;;;;;;;;5033040;28;20029;-70
2022/01/08 01:48:20;;;;;;;22.65;9.45;;;;;;;;;;5035496;28;20149;-70
2022/01/08 01:50:47;;;;;;;18.80;8.75;;;;;;;;;;5033241;28;20013;-70
2022/01/08 01:53:13;;;;;;;12.05;5.75;;;;;;;;;;5033316;28;20053;-70
2022/01/08 01:55:39;;;;;;;14.18;6.93;;;;;;;;;;5032609;28;20063;-70
2022/01/08 01:58:06;;;;;;;22.20;9.25;;;;;;;;;;5029632;28;20031;-70
2022/01/08 02:00:32;;;;;;;27.02;9.48;;;;;;;;;;5034862;28;20053;-70
2022/01/08 02:02:59;;;;;;;18.33;7.90;;;;;;;;;;5033783;28;20473;-70
2022/01/08 02:05:25;;;;;;;19.85;8.20;;;;;;;;;;5033041;28;20040;-70
2022/01/08 02:07:53;;;;;;;15.98;7.10;;;;;;;;;;5034428;28;20119;-70
2022/01/08 02:10:19;;;;;;;;;;;;;;;;;;5031379;28;20107;-71
2022/01/08 02:12:45;;;;;;;12.15;6.45;;;;;;;;;;5031659;28;19911;-70
2022/01/08 02:15:11;;;;;;;14.35;5.90;;;;;;;;;;5034589;28;20461;-70
2022/01/08 02:17:37;;;;;;;16.58;7.25;;;;;;;;;;5032912;28;20025;-70
2022/01/08 02:20:03;;;;;;;16.77;7.70;;;;;;;;;;5032741;28;20029;-70
2022/01/08 02:22:29;;;;;;;15.75;7.50;;;;;;;;;;5032161;28;20025;-70
2022/01/08 02:24:55;;;;;;;15.20;6.47;;;;;;;;;;5028937;28;20034;-71
2022/01/08 02:27:21;;;;;;;17.58;7.55;;;;;;;;;;5035899;28;20033;-71
2022/01/08 02:29:49;;;;;;;17.58;8.30;;;;;;;;;;5032501;28;20029;-70
2022/01/08 02:32:18;;;;;;;20.05;8.32;;;;;;;;;;5032688;28;20057;-71
2022/01/08 02:34:46;;;;;;;17.95;7.85;;;;;;;;;;5032360;28;20024;-71
2022/01/08 02:37:13;;;;;;;15.80;7.15;;;;;;;;;;5029428;28;20046;-71
2022/01/08 02:39:41;;;;;;;17.35;7.47;;;;;;;;;;5031477;28;20469;-71
2022/01/08 02:42:08;;;;;;;15.45;6.82;;;;;;;;;;5033696;28;20058;-71
2022/01/08 02:44:34;;;;;;;12.35;5.07;;;;;;;;;;5032521;28;20473;-71
2022/01/08 02:47:00;;;;;;;16.95;7.68;;;;;;;;;;5032509;28;20040;-70
2022/01/08 02:49:26;;;;;;;13.95;6.55;;;;;;;;;;5031212;28;20029;-71
2022/01/08 02:51:53;;;;;;;17.50;7.13;;;;;;;;;;5029694;28;20454;-71
2022/01/08 02:54:19;;;;;;;14.65;7.03;;;;;;;;;;5050477;28;20032;-71
2022/01/08 02:56:48;;;;;;;17.25;7.22;;;;;;;;;;5032562;28;20392;-71
2022/01/08 02:59:14;;;;;;;19.83;7.47;;;;;;;;;;5032308;28;20105;-70
2022/01/08 03:01:40;;;;;;;19.08;6.88;;;;;;;;;;5032156;28;20442;-70
2022/01/08 03:04:07;;;;;;;16.35;7.18;;;;;;;;;;5027402;28;20036;-70
2022/01/08 03:06:33;;;;;;;14.73;5.80;;;;;;;;;;5033770;28;20029;-70
2022/01/08 03:09:00;;;;;;;6.65;3.17;;;;;;;;;;5033169;28;20443;-71
2022/01/08 03:11:25;;;;;;;22.67;6.93;;;;;;;;;;5032348;28;20032;-70
2022/01/08 03:13:52;;;;;;;15.20;7.68;;;;;;;;;;5031951;28;20478;-70
2022/01/08 03:16:18;;;;;;;10.90;5.78;;;;;;;;;;5030131;28;20026;-70
2022/01/08 03:18:44;;;;;;;15.68;7.32;;;;;;;;;;5031807;28;20025;-70
2022/01/08 03:21:19;;;;;;;16.98;7.68;;;;;;;;;;5033806;28;20473;-71
2022/01/08 03:23:53;;;;;;;14.73;6.93;;;;;;;;;;5031754;28;20453;-70
2022/01/08 03:26:21;;;;;;;16.63;7.05;;;;;;;;;;5031743;28;20039;-71
2022/01/08 03:28:47;;;;;;;20.70;8.05;;;;;;;;;;5032237;28;20090;-71
2022/01/08 03:31:14;;;;;;;18.60;8.48;;;;;;;;;;5029609;28;20497;-70
2022/01/08 03:33:40;;;;;;;17.13;8.15;;;;;;;;;;5032139;28;20101;-71
2022/01/08 03:36:06;;;;;;;18.02;7.05;;;;;;;;;;5032992;28;20137;-71
2022/01/08 03:38:32;;;;;;;12.93;6.47;;;;;;;;;;5027664;28;20049;-71
2022/01/08 03:40:58;;;;;;;16.60;7.70;;;;;;;;;;5036457;28;20460;-71
2022/01/08 03:43:25;;;;;;;20.85;7.97;;;;;;;;;;5030810;28;20108;-71
2022/01/08 03:45:51;;;;;;;16.02;7.03;;;;;;;;;;5033125;28;20029;-71
2022/01/08 03:50:45;;;;;;;14.48;6.90;;;;;;;;;;5035458;28;20030;-71
2022/01/08 03:53:11;;;;;;;13.55;6.65;;;;;;;;;;5035625;28;20033;-71
2022/01/08 03:55:37;;;;;;;14.80;7.03;;;;;;;;;;5035292;28;20028;-71
2022/01/08 03:58:03;;;;;;;14.45;6.63;;;;;;;;;;5030384;28;20522;-71
2022/01/08 04:00:29;;;;;;;17.23;7.22;;;;;;;;;;5037510;28;20057;-71
2022/01/08 04:02:55;;;;;;;17.98;7.30;;;;;;;;;;5037360;28;20532;-71
2022/01/08 04:05:21;;;;;;;14.25;6.97;;;;;;;;;;5035062;28;20104;-71
2022/01/08 04:07:47;;;;;;;16.00;6.47;;;;;;;;;;5037082;28;20041;-71
2022/01/08 04:10:13;;;;;;;13.77;5.75;;;;;;;;;;5032381;28;20520;-71
2022/01/08 04:12:47;;;;;;;16.85;6.57;;;;;;;;;;5035552;28;20025;-72
2022/01/08 04:15:37;;;;;;;21.50;7.20;;;;;;;;;;5036795;28;20029;-70
2022/01/08 04:17:59;;;;;;;12.82;6.75;;;;;;;;;;5035822;28;20095;-70
2022/01/08 04:20:25;;;;;;;15.77;7.50;;;;;;;;;;5034458;28;20105;-71
2022/01/08 04:22:52;;;;;;;16.73;7.65;;;;;;;;;;5034978;28;20068;-72
2022/01/08 04:25:20;;;;;;;14.68;7.20;;;;;;;;;;5032852;28;20034;-71
2022/01/08 04:27:46;;;;;;;13.93;7.05;;;;;;;;;;5033753;28;20087;-72
2022/01/08 04:30:12;;;;;;;11.30;5.85;;;;;;;;;;5036348;28;20039;-71
2022/01/08 04:32:39;;;;;;;12.18;5.75;;;;;;;;;;5034587;28;20030;-71
2022/01/08 04:35:05;;;;;;;12.35;5.18;;;;;;;;;;5034616;28;20036;-71
2022/01/08 04:37:32;;;;;;;11.25;5.63;;;;;;;;;;5034673;28;20045;-71
2022/01/08 04:39:58;;;;;;;18.63;6.63;;;;;;;;;;5014745;28;20033;-71
2022/01/08 04:42:24;;;;;;;14.23;6.35;;;;;;;;;;5037996;28;20041;-71
2022/01/08 04:44:52;;;;;;;15.50;6.93;;;;;;;;;;5034143;28;20120;-72
2022/01/08 04:47:18;;;;;;;;;;;;;;;;;;5034506;28;20037;-72
2022/01/08 04:49:44;;;;;;;9.57;4.95;;;;;;;;;;5034131;28;20257;-72
2022/01/08 04:52:10;;;;;;;13.02;6.00;;;;;;;;;;5031402;28;20101;-71
2022/01/08 04:54:36;;;;;;;10.88;5.55;;;;;;;;;;5035194;28;20108;-72
2022/01/08 04:57:02;;;;;;;13.70;5.47;;;;;;;;;;5035471;28;20537;-72
2022/01/08 04:59:28;;;;;;;14.38;5.90;;;;;;;;;;5033356;28;20037;-72
2022/01/08 05:01:54;;;;;;;11.65;4.93;;;;;;;;;;5034366;28;20039;-72
2022/01/08 05:04:21;;;;;;;14.77;6.28;;;;;;;;;;5032422;28;20037;-72
2022/01/08 05:06:46;;;;;;;15.02;6.88;;;;;;;;;;5032605;28;20037;-72
2022/01/08 05:09:12;;;;;;;12.85;6.63;;;;;;;;;;5035994;28;20056;-72
2022/01/08 05:11:39;;;;;;;15.77;6.05;;;;;;;;;;5033700;28;20029;-73
2022/01/08 05:14:05;;;;;;;16.02;6.78;;;;;;;;;;5034104;28;20055;-72
2022/01/08 05:16:32;;;;;;;17.75;6.80;;;;;;;;;;5034026;28;20419;-72
2022/01/08 05:18:59;;;;;;;10.27;5.38;;;;;;;;;;5029457;28;20025;-72
2022/01/08 05:21:28;;;;;;;11.90;5.72;;;;;;;;;;5044640;28;20021;-72
2022/01/08 05:23:55;;;;;;;11.18;5.22;;;;;;;;;;5034213;28;20025;-72
2022/01/08 05:26:22;;;;;;;13.82;5.55;;;;;;;;;;5033264;28;20032;-73
2022/01/08 05:28:48;;;;;;;12.60;5.78;;;;;;;;;;5029895;28;20048;-72
2022/01/08 05:31:20;;;;;;;10.80;5.70;;;;;;;;;;5030314;28;20117;-73
2022/01/08 05:33:46;;;;;;;10.70;5.90;;;;;;;;;;5031967;28;20105;-72
2022/01/08 05:36:12;;;;;;;12.13;5.22;;;;;;;;;;5035314;28;20095;-72
2022/01/08 05:38:38;;;;;;;9.57;4.55;;;;;;;;;;5033716;28;20068;-73
2022/01/08 05:41:04;;;;;;;11.82;6.20;;;;;;;;;;5033495;28;20029;-73
2022/01/08 05:43:30;;;;;;;15.05;6.25;;;;;;;;;;5033081;28;20029;-73
2022/01/08 05:45:56;;;;;;;13.15;5.65;;;;;;;;;;5029914;28;20412;-72
2022/01/08 05:48:23;;;;;;;17.65;5.50;;;;;;;;;;5032741;28;20091;-73
2022/01/08 05:50:49;;;;;;;11.75;5.75;;;;;;;;;;5028308;28;20025;-73
2022/01/08 05:53:16;;;;;;;14.20;6.13;;;;;;;;;;5034042;28;20072;-76
2022/01/08 05:55:42;;;;;;;11.52;5.15;;;;;;;;;;5021576;28;20109;-73
2022/01/08 05:58:08;;;;;;;12.80;5.43;;;;;;;;;;5031604;28;20112;-73
2022/01/08 06:00:34;;;;;;;12.73;5.43;;;;;;;;;;5031297;28;20094;-73
2022/01/08 06:03:00;;;;;;;11.52;5.40;;;;;;;;;;5038613;28;20473;-73
2022/01/08 06:05:26;;;;;;;16.98;5.65;;;;;;;;;;5033622;28;20030;-73
2022/01/08 06:07:52;;;;;;;11.95;5.25;;;;;;;;;;5034149;28;20052;-73
2022/01/08 06:10:19;;;;;;;12.68;5.78;;;;;;;;;;5029992;28;20097;-73
2022/01/08 06:12:45;;;;;;;8.75;4.88;;;;;;;;;;5032575;28;20059;-73
2022/01/08 06:15:11;;;;;;;13.32;5.22;;;;;;;;;;5047867;28;20040;-73
2022/01/08 06:17:37;;;;;;;10.75;5.22;;;;;;;;;;5032268;28;20033;-70
2022/01/08 06:20:04;;;;;;;10.25;5.50;;;;;;;;;;5029324;28;20762;-72
2022/01/08 06:22:30;;;;;;;11.95;4.50;;;;;;;;;;5030039;28;20488;-70
2022/01/08 06:24:56;;;;;;;11.77;3.92;;;;;;;;;;5027172;28;20025;-70
2022/01/08 06:27:22;;;;;;;11.57;5.22;;;;;;;;;;5031091;28;21285;-71
2022/01/08 06:29:48;;;;;;;9.82;4.40;;;;;;;;;;5030750;28;20030;-71
2022/01/08 06:32:14;;;;;;;9.07;4.75;;;;;;;;;;5029512;28;20033;-71
2022/01/08 06:34:41;;;;;;;7.63;3.88;;;;;;;;;;5028013;28;20132;-70
2022/01/08 06:37:07;;;;;;;10.50;4.50;;;;;;;;;;5028167;28;20511;-70
2022/01/08 06:39:33;;;;;;;8.13;3.90;;;;;;;;;;5029887;28;20108;-70
2022/01/08 06:41:59;;;;;;;9.75;4.68;;;;;;;;;;5029826;28;20392;-70
2022/01/08 06:44:25;;;;;;;11.18;5.38;;;;;;;;;;5029771;28;20492;-70
2022/01/08 06:46:51;;;;;;;9.13;4.18;;;;;;;;;;5030863;28;20079;-71
2022/01/08 06:49:17;;;;;;;9.75;4.40;;;;;;;;;;5027920;28;20021;-70
2022/01/08 06:51:43;;;;;;;9.65;4.07;;;;;;;;;;5029606;28;20017;-71
2022/01/08 06:54:09;;;;;;;10.02;3.85;;;;;;;;;;5031672;28;20559;-70
2022/01/08 06:56:35;;;;;;;9.88;4.28;;;;;;;;;;5030595;28;20021;-70
2022/01/08 06:59:01;;;;;;;11.52;4.07;;;;;;;;;;5030223;28;20020;-70
2022/01/08 07:01:27;;;;;;;10.65;4.55;;;;;;;;;;5027470;28;20030;-71
2022/01/08 07:03:55;;;;;;;8.57;4.05;;;;;;;;;;5030377;28;20046;-71
2022/01/08 07:06:21;;;;;;;6.00;2.65;;;;;;;;;;5029939;28;20018;-72
2022/01/08 07:08:47;;;;;;;7.05;3.58;;;;;;;;;;5030457;28;20117;-69
2022/01/08 07:11:13;;;;;;;15.10;5.35;;;;;;;;;;5031385;28;20115;-75
2022/01/08 07:13:39;;;;;;;11.82;4.78;;;;;;;;;;5032513;28;20017;-78
2022/01/08 07:16:06;;;;;;;16.00;5.18;;;;;;;;;;5029066;28;20037;-77
2022/01/08 07:18:32;;;;;;;13.32;5.78;;;;;;;;;;5034450;28;20409;-78
2022/01/08 07:20:58;;;;;;;12.75;5.78;;;;;;;;;;5037484;28;20041;-79
2022/01/08 07:23:24;;;;;;;12.77;5.65;;;;;;;;;;5034604;28;20443;-78
2022/01/08 07:25:50;;;;;;;12.02;5.22;;;;;;;;;;5035310;28;20037;-76
2022/01/08 07:28:16;;;;;;;9.65;5.15;;;;;;;;;;5045111;28;20037;-77
2022/01/08 07:30:42;;;;;;;12.88;6.45;;;;;;;;;;5034569;28;20473;-77
2022/01/08 07:33:08;;;;;;;15.52;7.78;;;;;;;;;;5035245;28;20430;-76
2022/01/08 07:35:34;;;;;;;21.67;7.50;;;;;;;;;;5042473;28;20024;-75
2022/01/08 07:38:00;;;;;;;17.17;7.10;;;;;;;;;;5041938;28;20034;-77
2022/01/08 07:40:26;;;;;;;11.15;5.95;;;;;;;;;;5037109;28;20381;-77
2022/01/08 07:42:52;;;;;;;13.82;5.35;;;;;;;;;;5032922;28;20034;-82
2022/01/08 07:45:19;;;;;;;13.50;5.28;;;;;;;;;;5038787;28;20026;-66
2022/01/08 07:47:45;;;;;;;10.50;4.70;;;;;;;;;;5035928;28;20120;-71
2022/01/08 07:50:12;;;;;;;11.30;5.75;;;;;;;;;;5035307;28;20022;-72
2022/01/08 07:52:38;;;;;;;13.07;5.03;;;;;;;;;;5035707;28;20050;-75
2022/01/08 07:55:04;;;;;;;10.15;4.85;;;;;;;;;;5031064;28;20073;-72
2022/01/08 07:57:30;;;;;;;12.32;4.85;;;;;;;;;;5037256;28;20032;-73
2022/01/08 07:59:56;;;;;;;9.13;4.65;;;;;;;;;;5051101;28;20029;-74
2022/01/08 08:02:22;;;;;;;12.05;5.28;;;;;;;;;;5035828;28;20040;-75
2022/01/08 08:04:48;;;;;;;8.00;3.97;;;;;;;;;;5037383;28;20029;-71
2022/01/08 08:07:25;;;;;;;13.10;5.63;;;;;;;;;;5033036;28;20045;-71
2022/01/08 08:09:51;;;;;;;7.82;4.00;;;;;;;;;;5032248;28;20053;-72
2022/01/08 08:12:17;;;;;;;6.93;3.55;;;;;;;;;;5037425;28;20440;-72
2022/01/08 08:14:43;;;;;;;15.25;6.40;;;;;;;;;;5034703;28;20028;-72
2022/01/08 08:17:09;;;;;;;14.07;4.70;;;;;;;;;;5033530;28;20061;-72
2022/01/08 08:19:35;;;;;;;11.25;4.60;;;;;;;;;;5034795;28;20025;-72
2022/01/08 08:22:01;;;;;;;12.80;5.32;;;;;;;;;;5029064;28;20086;-73
2022/01/08 08:24:27;;;;;;;15.18;5.30;;;;;;;;;;5036185;28;20075;-73
2022/01/08 08:26:53;;;;;;;9.50;4.32;;;;;;;;;;5032685;28;20519;-72
2022/01/08 08:29:18;;;;;;;8.80;4.55;;;;;;;;;;5031580;28;20414;-73
2022/01/08 08:31:44;;;;;;;11.02;5.05;;;;;;;;;;5033289;28;20025;-73
2022/01/08 08:34:10;;;;;;;10.77;5.25;;;;;;;;;;5032036;28;20032;-72
2022/01/08 08:36:36;;;;;;;11.68;6.07;;;;;;;;;;5034101;28;20465;-72
2022/01/08 08:39:03;;;;;;;12.30;6.30;;;;;;;;;;5035788;28;20033;-72
2022/01/08 08:41:29;;;;;;;13.20;6.82;;;;;;;;;;5034323;28;20028;-72
2022/01/08 08:43:55;;;;;;;15.63;6.50;;;;;;;;;;5034452;28;20104;-72
2022/01/08 08:46:21;;;;;;;13.15;6.95;;;;;;;;;;5033153;28;20033;-72
2022/01/08 08:48:47;;;;;;;15.18;6.50;;;;;;;;;;5033354;28;20084;-73
2022/01/08 08:51:13;;;;;;;14.05;6.50;;;;;;;;;;5035946;28;20029;-72
2022/01/08 08:53:39;;;;;;;12.80;7.25;;;;;;;;;;5034211;28;20537;-72
2022/01/08 08:56:05;;;;;;;13.65;7.05;;;;;;;;;;5034243;28;20032;-72
2022/01/08 08:58:31;;;;;;;15.98;6.75;;;;;;;;;;5034316;28;20025;-72
2022/01/08 09:00:57;;;;;;;11.27;4.80;;;;;;;;;;5030620;28;20030;-72
2022/01/08 09:03:23;;;;;;;11.52;4.68;;;;;;;;;;5037121;28;20048;-72
2022/01/08 09:05:49;;;;;;;9.73;5.07;;;;;;;;;;5032959;28;20053;-72
2022/01/08 09:08:15;;;;;;;8.52;4.47;;;;;;;;;;5033808;28;20038;-72
2022/01/08 09:10:41;;;;;;;10.27;4.70;;;;;;;;;;5034024;28;20089;-72
2022/01/08 09:13:07;;;;;;;9.13;3.92;;;;;;;;;;5030299;28;20385;-72
2022/01/08 09:15:37;;;;;;;10.85;4.55;;;;;;;;;;5035684;28;20022;-72
2022/01/08 09:18:03;;;;;;;9.73;4.88;;;;;;;;;;5036545;28;20530;-72
2022/01/08 09:20:30;;;;;;;11.27;5.50;;;;;;;;;;5035554;28;20021;-72
2022/01/08 09:22:56;;;;;;;8.27;4.53;;;;;;;;;;5033617;28;20029;-72
2022/01/08 09:25:22;;;;;;;10.15;5.20;;;;;;;;;;5032194;28;20476;-72
2022/01/08 09:27:48;;;;;;;9.20;4.22;;;;;;;;;;5031771;28;20048;-72
2022/01/08 09:30:14;;;;;;;6.45;3.65;;;;;;;;;;5035694;28;20026;-72
2022/01/08 09:32:44;;;;;;;6.65;3.30;;;;;;;;;;5031434;28;20470;-72
2022/01/08 09:35:10;;;;;;;8.63;3.88;;;;;;;;;;5033504;28;20051;-72
2022/01/08 09:37:38;;;;;;;9.93;4.43;;;;;;;;;;5033316;28;20420;-72
2022/01/08 09:40:04;;;;;;;7.57;4.03;;;;;;;;;;5027664;28;20507;-72
2022/01/08 09:42:30;;;;;;;7.47;3.75;;;;;;;;;;5035059;28;20381;-72
2022/01/08 09:44:56;;;;;;;6.82;3.35;;;;;;;;;;5033865;28;20417;-72
2022/01/08 09:47:22;;;;;;;7.28;3.60;;;;;;;;;;5032822;28;20038;-72
2022/01/08 09:49:50;;;;;;;8.10;2.75;;;;;;;;;;5032821;28;20024;-71
2022/01/08 09:52:16;;;;;;;5.72;2.47;;;;;;;;;;5031081;28;20064;-72
2022/01/08 09:54:42;;;;;;;10.98;4.45;;;;;;;;;;5032822;28;20057;-72
2022/01/08 09:57:08;;;;;;;6.72;3.03;;;;;;;;;;5034365;28;20053;-71
2022/01/08 09:59:34;;;;;;;7.93;3.25;;;;;;;;;;5032422;28;20072;-71
2022/01/08 10:02:01;;;;;;;6.25;2.72;;;;;;;;;;5033082;28;20051;-71
2022/01/08 10:04:28;;;;;;;5.25;2.80;;;;;;;;;;5032328;28;20033;-71
2022/01/08 10:07:12;;;;;;;4.78;2.17;;;;;;;;;;5029848;28;20095;-71
2022/01/08 10:09:38;;;;;;;4.38;2.03;;;;;;;;;;5043944;28;20029;-71
2022/01/08 10:12:05;;;;;;;5.78;2.40;;;;;;;;;;5034362;28;20535;-71
2022/01/08 10:17:13;;;;;;;6.22;2.30;;;;;;;;;;5032541;28;20025;-71
2022/01/08 10:17:39;;;;;;;5.88;2.55;;;;;;;;;;5032615;28;20033;-70
2022/01/08 10:20:05;;;;;;;7.80;3.88;;;;;;;;;;5034320;28;20021;-72
2022/01/08 10:22:31;;;;;;;7.40;3.67;;;;;;;;;;5032714;28;20035;-71
2022/01/08 10:25:11;;;;;;;5.20;2.63;;;;;;;;;;5027030;28;20096;-71
2022/01/08 10:27:37;;;;;;;8.82;3.13;;;;;;;;;;5044017;28;20048;-71
2022/01/08 10:30:04;;;;;;;5.25;2.50;;;;;;;;;;5033667;28;20032;-72
2022/01/08 10:32:30;;;;;;;5.00;2.22;;;;;;;;;;5031434;28;20033;-72
2022/01/08 10:34:56;;;;;;;5.10;2.25;;;;;;;;;;5031356;28;20075;-72
2022/01/08 10:37:22;;;;;;;5.43;2.30;;;;;;;;;;5031008;28;20052;-72
2022/01/08 10:39:54;;;;;;;8.30;4.20;;;;;;;;;;5031259;28;20022;-72
2022/01/08 10:42:21;;;;;;;9.02;4.10;;;;;;;;;;5035374;28;20465;-72
2022/01/08 10:44:48;;;;;;;8.07;4.30;;;;;;;;;;5032553;28;20465;-72
2022/01/08 10:47:18;;;;;;;8.60;4.55;;;;;;;;;;5032384;28;20038;-72
2022/01/08 10:49:46;;;;;;;6.60;3.30;;;;;;;;;;5032130;28;20032;-72
2022/01/08 10:52:16;;;;;;;6.37;2.70;;;;;;;;;;5028473;28;20033;-72
2022/01/08 10:54:43;;;;;;;3.92;1.90;;;;;;;;;;5035868;28;20500;-72
2022/01/08 10:57:12;;;;;;;8.35;2.50;;;;;;;;;;5037895;28;20037;-71
2022/01/08 10:59:39;;;;;;;4.63;2.20;;;;;;;;;;5036187;28;20560;-72
2022/01/08 11:02:06;;;;;;;3.03;1.83;;;;;;;;;;5036519;28;20029;-72
2022/01/08 11:04:32;;;;;;;5.35;2.45;;;;;;;;;;5036433;28;20455;-72
2022/01/08 11:06:59;;;;;;;6.32;2.40;;;;;;;;;;5032058;28;20037;-72
2022/01/08 11:09:26;;;;;;;8.02;3.70;;;;;;;;;;5062248;28;20131;-72
2022/01/08 11:11:53;;;;;;;11.27;4.97;;;;;;;;;;5036575;28;20120;-72
2022/01/08 11:17:08;;;;;;;5.85;2.20;;;;;;;;;;5036398;28;20041;-73
2022/01/08 11:19:35;;;;;;;7.93;2.03;;;;;;;;;;5037727;28;20457;-72
2022/01/08 11:22:01;;;;;;;3.92;1.65;;;;;;;;;;5031351;28;20493;-72
2022/01/08 11:24:28;;;;;;;3.33;1.85;;;;;;;;;;5039633;28;20037;-72
2022/01/08 11:26:57;;;;;;;4.72;2.15;;;;;;;;;;5036078;28;20049;-73
2022/01/08 11:29:25;;;;;;;6.50;2.13;;;;;;;;;;5035154;28;20033;-73
2022/01/08 11:31:55;;;;;;;5.20;2.33;;;;;;;;;;5038519;28;20088;-73
2022/01/08 11:34:24;;;;;;;5.03;2.35;;;;;;;;;;5047147;28;20017;-73
2022/01/08 11:36:51;;;;;;;4.57;2.03;;;;;;;;;;5033281;28;20448;-73
2022/01/08 11:39:17;;;;;;;3.70;1.85;;;;;;;;;;5037695;28;20021;-73
2022/01/08 11:41:45;;;;;;;5.40;1.80;;;;;;;;;;5033994;28;20117;-73
2022/01/08 11:44:12;;;;;;;3.45;1.58;;;;;;;;;;5035702;28;20024;-73
2022/01/08 11:46:38;;;;;;;8.75;2.22;;;;;;;;;;5035213;28;20029;-74
2022/01/08 11:49:04;;;;;;;10.18;3.53;;;;;;;;;;5031567;28;20539;-74
2022/01/08 11:51:31;;;;;;;12.68;4.90;;;;;;;;;;5037308;28;20075;-74
2022/01/08 11:53:58;;;;;;;9.77;4.10;;;;;;;;;;5035914;28;20531;-74
2022/01/08 11:56:26;;;;;;;6.72;2.50;;;;;;;;;;5035466;28;20029;-73
2022/01/08 11:59:23;;;;;;;7.03;2.53;;;;;;;;;;5035403;28;20036;-74
2022/01/08 12:02:06;;;;;;;5.18;0.50;;;;;;;;;;5037836;28;20286;-74
2022/01/08 12:04:33;;;;;;;5.10;2.50;;;;;;;;;;5033996;28;20029;-74
2022/01/08 12:06:59;;;;;;;3.53;1.80;;;;;;;;;;5031153;28;20025;-74
2022/01/08 12:09:27;;;;;;;5.07;1.80;;;;;;;;;;5038764;28;20060;-74
2022/01/08 12:11:54;;;;;;;;;;;;;;;;;;5035556;28;20068;-74
2022/01/08 12:14:23;;;;;;;2.40;1.10;;;;;;;;;;5034433;28;19944;-74
2022/01/08 12:16:50;;;;;;;2.00;0.80;;;;;;;;;;5034876;28;20029;-74
2022/01/08 12:19:31;;;;;;;2.78;0.60;;;;;;;;;;5034517;28;20030;-74
2022/01/08 12:21:57;;;;;;;1.35;0.50;;;;;;;;;;5015196;28;20416;-74
2022/01/08 12:24:26;;;;;;;0.88;0.50;;;;;;;;;;5037940;28;20120;-74
2022/01/08 12:27:00;;;;;;;0.45;0.35;;;;;;;;;;5034297;28;20543;-73
2022/01/08 12:29:31;;;;;;;0.75;0.50;;;;;;;;;;5034902;28;20035;-74
2022/01/08 12:32:16;;;;;;;0.88;0.43;;;;;;;;;;5034736;28;20135;-74
2022/01/08 12:34:48;;;;;;;1.65;0.35;;;;;;;;;;5034360;28;20161;-74
2022/01/08 12:37:15;;;;;;;0.70;0.50;;;;;;;;;;5032127;28;20477;-74
2022/01/08 12:39:44;;;;;;;1.23;0.80;;;;;;;;;;5034927;28;20531;-74
2022/01/08 12:42:22;;;;;;;1.35;0.70;;;;;;;;;;5035166;28;20354;-74
2022/01/08 12:44:57;;;;;;;2.65;1.20;;;;;;;;;;5034495;28;20033;-73
2022/01/08 12:47:38;;;;;;;1.00;0.80;;;;;;;;;;5034115;28;20037;-74
2022/01/08 12:50:23;;;;;;;1.25;0.88;;;;;;;;;;5034141;28;20036;-74
2022/01/08 12:53:04;;;;;;;1.30;0.70;;;;;;;;;;5034445;28;20029;-74
2022/01/08 12:55:31;;;;;;;6.72;2.40;;;;;;;;;;5034089;28;20028;-73
2022/01/08 12:57:57;;;;;;;6.05;2.55;;;;;;;;;;5030068;28;20038;-73
2022/01/08 13:00:23;;;;;;;9.63;4.25;;;;;;;;;;5037527;28;20025;-74
2022/01/08 13:02:49;;;;;;;5.30;2.60;;;;;;;;;;5033648;28;20496;-74
2022/01/08 13:05:15;;;;;;;5.28;2.60;;;;;;;;;;5034002;28;20029;-74
2022/01/08 13:07:51;;;;;;;7.18;2.60;;;;;;;;;;5033582;28;20041;-73
2022/01/08 13:10:17;;;;;;;7.10;3.20;;;;;;;;;;5031929;28;20048;-73
2022/01/08 13:12:44;;;;;;;7.22;3.17;;;;;;;;;;5033522;28;20076;-73
2022/01/08 13:15:11;;;;;;;4.35;1.90;;;;;;;;;;5035368;28;20029;-74
2022/01/08 13:17:37;;;;;;;4.90;2.05;;;;;;;;;;5032574;28;20055;-73
2022/01/08 13:20:07;;;;;;;10.38;5.25;;;;;;;;;;5035903;28;20052;-74
2022/01/08 13:22:33;;;;;;;8.40;4.43;;;;;;;;;;5033671;28;20524;-74
2022/01/08 13:24:59;;;;;;;3.58;2.00;;;;;;;;;;5029407;28;20026;-74
2022/01/08 13:27:26;;;;;;;4.72;2.20;;;;;;;;;;5037286;28;20087;-73
2022/01/08 13:29:54;;;;;;;4.63;1.98;;;;;;;;;;5032301;28;20056;-74
2022/01/08 13:32:21;;;;;;;3.35;1.77;;;;;;;;;;5033114;28;20476;-74
2022/01/08 13:34:47;;;;;;;2.75;1.23;;;;;;;;;;5033696;28;20048;-74
2022/01/08 13:37:16;;;;;;;3.30;2.08;;;;;;;;;;5030638;28;20089;-74
2022/01/08 13:39:44;;;;;;;6.10;3.88;;;;;;;;;;5033134;28;20025;-74
2022/01/08 13:42:12;;;;;;;3.85;1.92;;;;;;;;;;5035021;28;20108;-74
2022/01/08 13:44:39;;;;;;;5.25;1.83;;;;;;;;;;5033788;28;20387;-74
2022/01/08 13:47:05;;;;;;;5.78;2.15;;;;;;;;;;5033015;28;20506;-74
2022/01/08 13:49:32;;;;;;;4.03;1.50;;;;;;;;;;5033202;28;20029;-74
2022/01/08 13:51:58;;;;;;;3.42;1.27;;;;;;;;;;5029049;28;20080;-74
2022/01/08 13:54:34;;;;;;;5.68;2.20;;;;;;;;;;5036686;28;20396;-73
2022/01/08 13:57:12;;;;;;;4.90;2.05;;;;;;;;;;5034583;28;20132;-73
2022/01/08 13:59:39;;;;;;;2.08;1.23;;;;;;;;;;5032801;28;20434;-74
2022/01/08 14:02:05;;;;;;;10.38;4.32;;;;;;;;;;5032571;28;20076;-73
2022/01/08 14:04:31;;;;;;;22.40;13.27;;;;;;;;;;5032832;28;20029;-74
2022/01/08 14:06:57;;;;;;;10.13;5.25;;;;;;;;;;5029457;28;20041;-74
2022/01/08 14:09:23;;;;;;;11.13;4.65;;;;;;;;;;5036197;28;20021;-73
2022/01/08 14:11:49;;;;;;;9.60;4.38;;;;;;;;;;5031250;28;20362;-73
2022/01/08 14:14:19;;;;;;;13.32;5.47;;;;;;;;;;5032628;28;20036;-72
2022/01/08 14:16:45;;;;;;;12.00;6.22;;;;;;;;;;5032619;28;20537;-73
2022/01/08 14:19:15;;;;;;;16.75;7.57;;;;;;;;;;5031998;28;20021;-73
2022/01/08 14:21:52;;;;;;;17.38;8.90;;;;;;;;;;5032684;28;20021;-73
2022/01/08 14:24:20;;;;;;;12.03;5.77;;;;;;;;;;5035622;28;20021;-73
2022/01/08 14:27:01;;;;;;;12.40;5.45;;;;;;;;;;5032321;28;20024;-74
2022/01/08 14:29:28;;;;;;;14.35;6.20;;;;;;;;;;5032139;28;20100;-74
2022/01/08 14:31:55;;;;;;;17.17;8.98;;;;;;;;;;5032850;28;20017;-74
2022/01/08 14:34:22;;;;;;;11.50;6.10;;;;;;;;;;5031205;28;20033;-74
2022/01/08 14:36:51;;;;;;;9.68;4.80;;;;;;;;;;5030363;28;20056;-74
2022/01/08 14:39:31;;;;;;;11.40;5.50;;;;;;;;;;5035358;28;20095;-74
2022/01/08 14:42:01;;;;;;;12.40;6.28;;;;;;;;;;5034761;28;20504;-74
2022/01/08 14:44:28;;;;;;;17.50;7.68;;;;;;;;;;5032345;28;20111;-74
2022/01/08 14:46:54;;;;;;;20.45;8.00;;;;;;;;;;5032525;28;20428;-73
2022/01/08 14:49:20;;;;;;;14.95;7.07;;;;;;;;;;5030308;28;20442;-74
2022/01/08 14:51:47;;;;;;;13.90;6.32;;;;;;;;;;5031720;28;20438;-74
2022/01/08 14:54:13;;;;;;;15.02;5.38;;;;;;;;;;5034436;28;20026;-74
2022/01/08 14:56:40;;;;;;;19.55;9.52;;;;;;;;;;5032108;28;20022;-74
2022/01/08 14:59:06;;;;;;;15.55;8.38;;;;;;;;;;5032300;28;20389;-74
2022/01/08 15:01:32;;;;;;;31.52;16.05;;;;;;;;;;5032134;28;20032;-74